Time;durP1;ratioP1;P1;durP2;ratioP2;P2;SDS_P1;SDS_P2;PMS_P1;PMS_P2;Temp;Humidity;BMP_temperature;BMP_pressure;BME280_temperature;BME280_humidity;BME280_pressure;Samples;Min_cycle;Max_cycle;Signal;HPM_P1;HPM_P2
2021/05/21 07:51:08;;;;;;;8.95;1.10;;;21.50;57.90;;;;;;5194930;27;20724;-62
2021/05/21 07:53:41;;;;;;;8.40;1.10;;;21.70;58.60;;;;;;5168958;28;20053;-66
2021/05/21 07:56:15;;;;;;;3.60;1.00;;;21.70;58.50;;;;;;5177768;28;20706;-61
2021/05/21 07:58:48;;;;;;;6.13;1.23;;;21.80;58.50;;;;;;5149806;28;20608;-62
2021/05/21 08:01:21;;;;;;;6.47;1.10;;;21.90;58.60;;;;;;5145041;28;20054;-63
2021/05/21 08:03:54;;;;;;;7.17;1.87;;;21.90;58.60;;;;;;5165260;28;20046;-66
2021/05/21 08:06:26;;;;;;;8.52;1.15;;;22.00;58.70;;;;;;5138496;28;20147;-64
2021/05/21 08:08:59;;;;;;;15.05;1.70;;;22.00;58.70;;;;;;5158100;28;20061;-62
2021/05/21 08:11:33;;;;;;;14.98;2.20;;;22.10;58.60;;;;;;5142951;28;20472;-65
2021/05/21 08:14:08;;;;;;;9.23;1.25;;;22.10;58.70;;;;;;5149618;28;20534;-60
2021/05/21 08:16:40;;;;;;;5.10;1.20;;;22.20;58.70;;;;;;5150980;28;20791;-61
2021/05/21 08:19:14;;;;;;;11.63;1.42;;;22.20;58.40;;;;;;5150741;28;20510;-61
2021/05/21 08:21:47;;;;;;;9.15;1.23;;;22.20;58.30;;;;;;5144575;28;20057;-65
2021/05/21 08:24:19;;;;;;;7.50;1.40;;;22.20;58.20;;;;;;5153993;28;20042;-61
2021/05/21 08:26:52;;;;;;;7.22;1.20;;;22.30;58.20;;;;;;5150523;28;20112;-63
2021/05/21 08:29:24;;;;;;;2.50;1.38;;;22.20;58.20;;;;;;5143041;28;20046;-64
2021/05/21 08:32:00;;;;;;;5.00;1.13;;;22.30;58.20;;;;;;5147058;28;20057;-61
2021/05/21 08:34:32;;;;;;;4.65;1.17;;;22.30;57.60;;;;;;5141976;28;20046;-61
2021/05/21 08:37:05;;;;;;;29.83;1.90;;;22.30;56.90;;;;;;5136551;28;21266;-65
2021/05/21 08:39:39;;;;;;;9.95;1.48;;;22.30;55.60;;;;;;5147535;28;20352;-59
2021/05/21 08:42:12;;;;;;;9.35;1.63;;;22.30;56.20;;;;;;5139052;28;20054;-63
2021/05/21 08:44:49;;;;;;;;;;;22.30;56.10;;;;;;5161787;28;20050;-61
2021/05/21 08:47:21;;;;;;;9.48;1.38;;;22.30;56.00;;;;;;5139644;28;19929;-64
2021/05/21 08:49:54;;;;;;;11.93;1.33;;;22.40;55.70;;;;;;5139351;28;20050;-63
2021/05/21 08:52:27;;;;;;;7.53;1.13;;;22.30;56.00;;;;;;5127749;28;20438;-67
2021/05/21 08:54:59;;;;;;;11.93;1.40;;;22.30;55.90;;;;;;5144743;28;20523;-65
2021/05/21 08:57:32;;;;;;;10.73;1.70;;;22.30;55.90;;;;;;5143272;28;20046;-68
2021/05/21 09:00:06;;;;;;;6.35;1.08;;;22.30;55.80;;;;;;5148287;28;20569;-66
2021/05/21 09:02:39;;;;;;;9.23;1.63;;;22.30;56.00;;;;;;5128091;28;20054;-65
2021/05/21 09:05:12;;;;;;;7.85;1.30;;;22.30;56.10;;;;;;5133346;28;20054;-64
2021/05/21 09:07:45;;;;;;;9.73;1.37;;;22.30;56.20;;;;;;5123529;28;24337;-57
2021/05/21 09:10:21;;;;;;;8.57;1.42;;;22.30;56.20;;;;;;5130112;28;20050;-62
2021/05/21 09:12:54;;;;;;;10.80;1.30;;;22.30;56.30;;;;;;5130526;28;20986;-63
2021/05/21 09:15:27;;;;;;;9.77;1.58;;;22.30;56.30;;;;;;5131639;28;20046;-63
2021/05/21 09:18:05;;;;;;;13.90;1.80;;;22.30;56.30;;;;;;5130090;28;20042;-62
2021/05/21 09:20:39;;;;;;;5.55;1.15;;;22.30;56.30;;;;;;5131864;28;20589;-60
2021/05/21 09:23:17;;;;;;;9.40;1.45;;;22.30;56.30;;;;;;5142376;28;20046;-64
2021/05/21 09:25:51;;;;;;;10.63;2.17;;;22.30;56.40;;;;;;5125556;28;20071;-65
2021/05/21 09:28:37;;;;;;;7.75;1.40;;;22.40;56.60;;;;;;5136353;28;20499;-65
2021/05/21 09:31:17;;;;;;;9.95;1.38;;;22.40;56.50;;;;;;5121452;28;20054;-63
2021/05/21 09:33:52;;;;;;;7.72;1.20;;;22.40;56.40;;;;;;5122407;28;20422;-63
2021/05/21 09:36:33;;;;;;;10.02;1.33;;;22.40;56.50;;;;;;5118322;28;20062;-62
2021/05/21 09:39:08;;;;;;;9.35;1.50;;;22.50;56.50;;;;;;5123119;28;20050;-62
2021/05/21 09:42:01;;;;;;;7.50;1.40;;;22.40;56.50;;;;;;5121675;28;20054;-67
2021/05/21 09:44:34;;;;;;;4.40;1.05;;;22.40;56.50;;;;;;5132426;28;20045;-65
2021/05/21 09:47:10;;;;;;;;;;;22.50;56.50;;;;;;5125244;28;20058;-61
2021/05/21 09:49:43;;;;;;;7.45;1.73;;;22.50;56.50;;;;;;5119854;28;20002;-63
2021/05/21 09:52:17;;;;;;;8.50;1.52;;;22.50;56.50;;;;;;5124177;28;21056;-63
2021/05/21 09:54:51;;;;;;;7.35;2.25;;;22.40;56.60;;;;;;5132385;28;20045;-62
2021/05/21 09:57:34;;;;;;;9.32;1.30;;;22.50;56.80;;;;;;5132018;28;20042;-62
2021/05/21 10:00:09;;;;;;;9.77;1.50;;;22.40;56.60;;;;;;5134698;28;21549;-63
2021/05/21 10:02:43;;;;;;;5.45;1.25;;;22.50;56.40;;;;;;5127928;28;20058;-60
2021/05/21 10:05:16;;;;;;;5.90;1.55;;;22.60;56.20;;;;;;5134031;28;20051;-59
2021/05/21 10:07:52;;;;;;;4.70;1.10;;;22.70;56.20;;;;;;5127151;28;20704;-60
2021/05/21 10:10:25;;;;;;;8.98;1.40;;;22.60;56.10;;;;;;5154387;28;20047;-61
2021/05/21 10:12:58;;;;;;;6.20;1.60;;;22.70;56.10;;;;;;5116324;28;20065;-61
2021/05/21 10:15:30;;;;;;;4.45;1.30;;;22.70;56.10;;;;;;5134635;28;24203;-59
2021/05/21 10:18:03;;;;;;;7.47;1.45;;;22.70;56.10;;;;;;5128941;28;20046;-59
2021/05/21 10:20:36;;;;;;;5.32;1.20;;;22.70;55.90;;;;;;5126844;28;20065;-57
2021/05/21 10:23:09;;;;;;;7.70;1.40;;;22.80;55.80;;;;;;5127402;28;20053;-59
2021/05/21 10:25:41;;;;;;;4.45;1.13;;;22.80;55.10;;;;;;5143524;28;20660;-58
2021/05/21 10:28:15;;;;;;;4.93;1.20;;;22.80;54.40;;;;;;5147348;28;20046;-60
2021/05/21 10:30:50;;;;;;;8.65;1.35;;;22.70;54.30;;;;;;5140787;28;20069;-59
2021/05/21 10:33:31;;;;;;;5.93;1.02;;;22.70;53.30;;;;;;5117035;28;20043;-60
2021/05/21 10:36:28;;;;;;;8.27;1.10;;;22.70;54.20;;;;;;5123619;28;20064;-60
2021/05/21 10:39:21;;;;;;;11.25;1.20;;;22.60;54.10;;;;;;5128517;28;20054;-60
2021/05/21 10:42:21;;;;;;;3.35;1.27;;;22.60;54.20;;;;;;5107986;28;20042;-58
2021/05/21 10:45:22;;;;;;;6.80;1.42;;;22.70;54.40;;;;;;5133544;28;20057;-60
2021/05/21 10:48:00;;;;;;;11.63;1.15;;;22.70;54.50;;;;;;5125901;28;20076;-60
2021/05/21 10:50:35;;;;;;;3.35;1.20;;;22.70;54.40;;;;;;5113925;28;20050;-60
2021/05/21 10:53:09;;;;;;;12.15;1.20;;;22.70;54.40;;;;;;5109652;28;20836;-57
2021/05/21 10:55:52;;;;;;;7.50;1.30;;;22.60;54.80;;;;;;5100598;28;20049;-58
2021/05/21 10:58:29;;;;;;;3.80;1.07;;;22.50;54.80;;;;;;5125364;28;20175;-60
2021/05/21 11:01:13;;;;;;;4.45;1.00;;;22.50;54.50;;;;;;5107549;28;20054;-60
2021/05/21 11:04:02;;;;;;;6.55;1.38;;;22.50;54.80;;;;;;5116355;28;20054;-60
2021/05/21 11:06:48;;;;;;;5.60;1.00;;;22.40;54.90;;;;;;5111920;28;20054;-56
2021/05/21 11:09:28;;;;;;;6.97;0.80;;;22.40;55.00;;;;;;5108464;28;20352;-56
2021/05/21 11:12:08;;;;;;;12.20;3.03;;;22.30;55.00;;;;;;5111997;28;20046;-60
2021/05/21 11:14:44;;;;;;;12.60;1.73;;;22.40;54.60;;;;;;5120607;28;20061;-59
2021/05/21 11:17:25;;;;;;;11.07;2.80;;;22.50;54.50;;;;;;5122008;28;21257;-60
2021/05/21 11:19:58;;;;;;;6.10;1.42;;;22.50;54.50;;;;;;5128108;28;20422;-62
2021/05/21 11:22:36;;;;;;;12.35;1.38;;;22.50;54.60;;;;;;5122940;28;20050;-58
2021/05/21 11:25:18;;;;;;;6.53;1.27;;;22.50;54.70;;;;;;5127509;28;20057;-59
2021/05/21 11:27:50;;;;;;;12.88;2.63;;;22.50;55.30;;;;;;5105669;28;20046;-60
2021/05/21 11:30:23;;;;;;;14.03;2.00;;;22.40;55.10;;;;;;5107394;28;20061;-62
2021/05/21 11:32:55;;;;;;;10.05;2.17;;;22.40;55.30;;;;;;5121684;28;20054;-59
2021/05/21 11:35:28;;;;;;;8.55;1.55;;;22.30;55.30;;;;;;5134599;28;20050;-60
2021/05/21 11:38:01;;;;;;;14.82;2.15;;;22.20;55.30;;;;;;5132796;28;20189;-59
2021/05/21 11:40:34;;;;;;;22.60;3.38;;;22.30;55.40;;;;;;5134983;28;20050;-57
2021/05/21 11:43:07;;;;;;;11.95;1.30;;;22.30;55.30;;;;;;5129215;28;20138;-57
2021/05/21 11:45:40;;;;;;;9.45;1.67;;;22.30;55.30;;;;;;5147414;28;20761;-59
2021/05/21 11:48:13;;;;;;;11.40;1.60;;;22.20;55.20;;;;;;5138911;28;20423;-60
2021/05/21 11:50:46;;;;;;;11.07;1.50;;;22.30;55.00;;;;;;5135154;28;20567;-59
2021/05/21 11:53:19;;;;;;;7.40;1.10;;;22.30;54.90;;;;;;5141175;28;20050;-59
2021/05/21 11:55:54;;;;;;;4.85;1.42;;;22.30;54.80;;;;;;5136705;28;20069;-60
2021/05/21 11:58:27;;;;;;;2.60;1.27;;;22.30;54.70;;;;;;5141034;28;20042;-59
2021/05/21 12:01:01;;;;;;;6.63;1.52;;;22.30;54.50;;;;;;5106405;28;26115;-58
2021/05/21 12:03:38;;;;;;;7.13;1.98;;;22.30;54.60;;;;;;5099333;28;20057;-60
2021/05/21 12:06:11;;;;;;;6.85;1.30;;;22.40;54.30;;;;;;5124698;28;20046;-60
2021/05/21 12:08:48;;;;;;;7.05;1.35;;;22.40;55.10;;;;;;5132349;28;20066;-61
2021/05/21 12:11:20;;;;;;;6.43;1.25;;;22.40;54.40;;;;;;5136226;28;20187;-59
2021/05/21 12:14:00;;;;;;;5.25;1.40;;;22.50;54.50;;;;;;5135219;28;20534;-60
2021/05/21 12:16:33;;;;;;;3.65;1.35;;;22.40;55.00;;;;;;5147753;28;20418;-55
2021/05/21 12:19:12;;;;;;;5.78;1.52;;;22.50;54.50;;;;;;5124142;28;20067;-60
2021/05/21 12:21:47;;;;;;;5.22;1.38;;;22.50;54.80;;;;;;5126172;28;20046;-59
2021/05/21 12:24:26;;;;;;;8.07;1.95;;;22.50;54.70;;;;;;5139099;28;20054;-56
2021/05/21 12:26:58;;;;;;;4.97;1.20;;;22.50;54.80;;;;;;5122685;28;20077;-58
2021/05/21 12:29:31;;;;;;;5.80;1.30;;;22.50;54.90;;;;;;5120095;28;20046;-59
2021/05/21 12:32:05;;;;;;;4.73;1.43;;;22.50;55.00;;;;;;5124051;28;20056;-59
2021/05/21 12:34:38;;;;;;;5.90;1.25;;;22.50;54.90;;;;;;5116270;28;20408;-58
2021/05/21 12:37:10;;;;;;;5.10;1.45;;;22.50;55.00;;;;;;5128422;28;20046;-59
2021/05/21 12:39:44;;;;;;;3.47;1.00;;;22.60;55.00;;;;;;5143447;28;20054;-60
2021/05/21 12:42:19;;;;;;;5.32;1.30;;;22.60;55.10;;;;;;5125566;28;20050;-58
2021/05/21 12:44:52;;;;;;;5.65;1.15;;;22.50;55.10;;;;;;5122729;28;20042;-62
2021/05/21 12:47:25;;;;;;;4.68;1.23;;;22.50;55.20;;;;;;5131121;28;20062;-62
2021/05/21 12:50:01;;;;;;;5.82;1.65;;;22.50;55.20;;;;;;5119801;28;20107;-60
2021/05/21 12:52:52;;;;;;;4.68;1.17;;;22.70;55.00;;;;;;5134922;28;20521;-59
2021/05/21 12:55:25;;;;;;;6.65;1.20;;;22.70;54.90;;;;;;5131080;28;20042;-59
2021/05/21 12:58:00;;;;;;;8.63;1.60;;;22.70;55.00;;;;;;5139634;28;20046;-56
2021/05/21 13:00:32;;;;;;;5.80;1.17;;;22.70;55.00;;;;;;5130158;28;20050;-59
2021/05/21 13:03:08;;;;;;;5.68;1.35;;;22.70;55.00;;;;;;5131125;28;20591;-56
2021/05/21 13:05:41;;;;;;;4.93;1.52;;;22.80;54.90;;;;;;5129512;28;20043;-62
2021/05/21 13:08:14;;;;;;;7.07;1.20;;;22.90;55.40;;;;;;5129305;28;20570;-61
2021/05/21 13:10:46;;;;;;;3.60;1.05;;;22.80;54.90;;;;;;5128566;28;20419;-63
2021/05/21 13:13:29;;;;;;;3.53;1.20;;;22.80;55.00;;;;;;5144396;28;20400;-65
2021/05/21 13:16:01;;;;;;;3.72;1.20;;;22.80;55.20;;;;;;5130006;28;20305;-64
2021/05/21 13:18:34;;;;;;;6.87;1.47;;;22.70;55.10;;;;;;5127728;28;20905;-64
2021/05/21 13:21:10;;;;;;;5.47;1.10;;;22.70;55.20;;;;;;5124269;28;20748;-63
2021/05/21 13:23:42;;;;;;;;;;;22.80;55.20;;;;;;5127251;28;20722;-57
2021/05/21 13:26:15;;;;;;;7.47;1.20;;;22.70;55.90;;;;;;5118319;28;19925;-65
2021/05/21 13:28:47;;;;;;;5.50;1.40;;;22.70;55.50;;;;;;5143582;28;20051;-63
2021/05/21 13:31:20;;;;;;;4.15;1.20;;;22.60;55.50;;;;;;5127204;28;20568;-61
2021/05/21 13:33:53;;;;;;;4.60;1.40;;;22.70;55.50;;;;;;5129931;28;20535;-61
2021/05/21 13:36:25;;;;;;;3.70;1.00;;;22.70;55.60;;;;;;5125111;28;20046;-61
2021/05/21 13:39:00;;;;;;;6.45;1.48;;;22.60;55.70;;;;;;5144216;28;20789;-64
2021/05/21 13:41:33;;;;;;;4.95;1.15;;;22.70;55.70;;;;;;5124894;28;20624;-65
2021/05/21 13:44:06;;;;;;;5.07;1.13;;;22.70;55.70;;;;;;5144825;28;20050;-61
2021/05/21 13:46:39;;;;;;;5.72;1.23;;;22.70;55.80;;;;;;5119505;28;20057;-62
2021/05/21 13:49:11;;;;;;;6.03;1.20;;;22.60;55.90;;;;;;5122994;28;20042;-61
2021/05/21 13:51:44;;;;;;;2.72;0.90;;;22.60;55.90;;;;;;5141442;28;20093;-64
2021/05/21 13:54:17;;;;;;;3.08;1.15;;;22.60;56.00;;;;;;5129034;28;20038;-61
2021/05/21 13:56:55;;;;;;;9.32;1.67;;;22.60;55.90;;;;;;5120448;28;20046;-61
2021/05/21 13:59:27;;;;;;;6.90;1.50;;;22.60;56.00;;;;;;5148802;28;20065;-65
2021/05/21 14:02:00;;;;;;;6.82;1.40;;;22.60;55.80;;;;;;5128306;28;20087;-61
2021/05/21 14:04:33;;;;;;;9.20;1.80;;;22.60;55.80;;;;;;5136800;28;20058;-59
2021/05/21 14:07:06;;;;;;;7.43;1.55;;;22.60;55.80;;;;;;5124979;28;20250;-61
2021/05/21 14:09:40;;;;;;;8.77;1.27;;;22.60;55.90;;;;;;5140231;28;20057;-58
2021/05/21 14:12:12;;;;;;;5.10;1.40;;;22.60;56.00;;;;;;5132514;28;20058;-62
2021/05/21 14:14:45;;;;;;;8.75;1.45;;;22.60;55.90;;;;;;5109809;28;20561;-65
2021/05/21 14:17:18;;;;;;;8.90;1.30;;;22.60;56.20;;;;;;5128183;28;20045;-63
2021/05/21 14:19:50;;;;;;;9.13;1.50;;;22.70;55.70;;;;;;5118204;28;20558;-62
2021/05/21 14:22:23;;;;;;;5.33;1.53;;;22.70;55.70;;;;;;5144883;28;20526;-63
2021/05/21 14:24:55;;;;;;;6.25;1.13;;;22.70;55.80;;;;;;5134765;28;20302;-59
2021/05/21 14:27:28;;;;;;;6.93;1.15;;;22.70;55.90;;;;;;5123040;28;20057;-59
2021/05/21 14:30:02;;;;;;;2.00;1.00;;;22.60;55.90;;;;;;5132769;28;20176;-59
2021/05/21 14:32:37;;;;;;;14.05;1.60;;;22.60;56.00;;;;;;5127883;28;20047;-58
2021/05/21 14:35:10;;;;;;;7.53;1.33;;;22.60;56.10;;;;;;5120717;28;20073;-60
2021/05/21 14:37:44;;;;;;;13.13;1.77;;;22.60;56.30;;;;;;5104069;28;21718;-63
2021/05/21 14:40:17;;;;;;;7.82;1.25;;;22.50;56.40;;;;;;5109055;28;20051;-65
2021/05/21 14:42:50;;;;;;;6.88;1.52;;;22.50;56.90;;;;;;5114565;28;20053;-63
2021/05/21 14:45:22;;;;;;;13.13;2.08;;;22.60;56.30;;;;;;5120952;28;20518;-61
2021/05/21 14:47:56;;;;;;;9.30;1.73;;;22.60;56.60;;;;;;5118428;28;20049;-66
2021/05/21 14:50:30;;;;;;;8.65;1.45;;;22.60;56.40;;;;;;5121191;28;20498;-67
2021/05/21 14:53:02;;;;;;;6.30;1.40;;;22.50;56.50;;;;;;5120862;28;20046;-63
2021/05/21 14:55:35;;;;;;;6.80;1.42;;;22.50;56.50;;;;;;5124778;28;20073;-67
2021/05/21 14:58:08;;;;;;;15.65;1.55;;;22.50;56.70;;;;;;5116610;28;20049;-64
2021/05/21 15:00:41;;;;;;;12.00;1.73;;;22.50;56.70;;;;;;5130844;28;20072;-65
2021/05/21 15:03:16;;;;;;;5.63;1.48;;;22.50;56.80;;;;;;5132053;28;20053;-61
2021/05/21 15:05:48;;;;;;;3.72;1.55;;;22.40;56.80;;;;;;5120462;28;20047;-63
2021/05/21 15:08:21;;;;;;;9.13;1.52;;;22.50;56.90;;;;;;5136304;28;20046;-61
2021/05/21 15:10:55;;;;;;;10.85;1.35;;;22.40;56.80;;;;;;5129158;28;20062;-65
2021/05/21 15:13:34;;;;;;;8.98;1.45;;;22.40;56.90;;;;;;5135339;28;20050;-63
2021/05/21 15:16:19;;;;;;;9.75;1.50;;;22.40;57.00;;;;;;5136290;28;20050;-62
2021/05/21 15:22:06;;;;;;;7.45;1.42;;;22.40;56.90;;;;;;5122088;28;20531;-66
2021/05/21 15:24:41;;;;;;;8.80;1.10;;;22.30;56.90;;;;;;5145616;28;20393;-61
2021/05/21 15:27:15;;;;;;;5.50;1.17;;;22.30;56.80;;;;;;5121539;28;20042;-63
2021/05/21 15:29:48;;;;;;;5.83;1.30;;;22.30;56.60;;;;;;5143010;28;20042;-66
2021/05/21 15:32:21;;;;;;;9.15;1.63;;;22.30;56.50;;;;;;5126087;28;20757;-63
2021/05/21 15:34:54;;;;;;;9.80;1.77;;;22.30;56.50;;;;;;5132692;28;20059;-60
2021/05/21 15:37:26;;;;;;;10.73;1.50;;;22.40;56.30;;;;;;5124508;28;20209;-61
2021/05/21 15:40:00;;;;;;;3.10;1.02;;;22.40;56.40;;;;;;5118795;28;20346;-62
2021/05/21 15:45:26;;;;;;;7.40;1.45;;;22.30;56.30;;;;;;5120839;28;20054;-63
2021/05/21 15:47:59;;;;;;;5.93;1.55;;;22.30;56.40;;;;;;5139290;28;21312;-63
2021/05/21 15:51:19;;;;;;;4.22;1.20;;;22.30;56.30;;;;;;5131702;28;20597;-60
2021/05/21 15:53:38;;;;;;;7.07;1.00;;;22.40;56.30;;;;;;5120225;28;20320;-59
2021/05/21 15:59:06;;;;;;;6.20;1.27;;;22.40;56.40;;;;;;5140587;28;20053;-60
2021/05/21 16:01:38;;;;;;;7.57;1.77;;;22.30;56.50;;;;;;5136990;28;20049;-62
2021/05/21 16:04:11;;;;;;;5.93;1.10;;;22.40;56.60;;;;;;5134096;28;20043;-63
